createdAt,value
2023-05-18T00:00:11.342Z,5.47
2023-05-18T00:02:42.048Z,5.43
2023-05-18T00:05:10.654Z,5.39
2023-05-18T00:07:37.656Z,5.41
2023-05-18T00:10:04.305Z,5.41
2023-05-18T00:12:31.126Z,5.40
2023-05-18T00:14:57.740Z,5.37
2023-05-18T00:17:24.593Z,5.17
2023-05-18T00:19:52.048Z,5.52
2023-05-18T00:22:20.667Z,5.61
2023-05-18T00:24:48.687Z,5.70
2023-05-18T00:27:17.366Z,5.71
2023-05-18T00:29:46.223Z,5.71
2023-05-18T00:32:13.874Z,5.70
2023-05-18T00:34:41.830Z,5.68
2023-05-18T00:37:08.565Z,5.70
2023-05-18T00:39:35.278Z,5.72
2023-05-18T00:42:02.573Z,5.74
2023-05-18T00:44:29.281Z,5.77
2023-05-18T00:46:55.933Z,5.75
2023-05-18T00:49:22.672Z,5.81
2023-05-18T00:51:49.642Z,5.79
2023-05-18T00:54:16.950Z,5.75
2023-05-18T00:56:46.762Z,5.71
2023-05-18T00:59:13.559Z,5.68
2023-05-18T01:01:46.754Z,5.61
2023-05-18T01:04:14.773Z,5.42
2023-05-18T01:06:42.853Z,5.28
2023-05-18T01:09:12.320Z,5.13
2023-05-18T01:11:57.205Z,4.97
2023-05-18T01:14:59.868Z,4.80
2023-05-18T01:17:40.447Z,4.61
2023-05-18T01:20:26.654Z,4.44
2023-05-18T01:23:12.414Z,4.16
2023-05-18T01:25:54.307Z,4.20
2023-05-18T01:28:28.517Z,4.14
2023-05-18T01:30:56.562Z,4.12
2023-05-18T01:33:24.795Z,4.11
2023-05-18T01:35:51.994Z,4.10
2023-05-18T01:38:22.499Z,4.06
2023-05-18T01:40:51.988Z,4.05
2023-05-18T01:43:21.505Z,4.04
2023-05-18T01:45:56.532Z,4.04
2023-05-18T01:48:25.370Z,3.88
2023-05-18T01:50:56.528Z,4.03
2023-05-18T01:53:23.173Z,4.03
2023-05-18T01:55:52.652Z,3.98
2023-05-18T01:58:20.454Z,3.96
2023-05-18T02:00:47.217Z,3.86
2023-05-18T02:03:14.835Z,3.84
2023-05-18T02:05:41.525Z,3.75
2023-05-18T02:08:08.282Z,3.67
2023-05-18T02:10:34.903Z,3.61
2023-05-18T02:13:02.020Z,3.59
2023-05-18T02:15:29.288Z,3.54
2023-05-18T02:17:58.274Z,3.59
2023-05-18T02:20:25.229Z,3.61
2023-05-18T02:22:52.020Z,3.64
2023-05-18T02:25:19.163Z,3.57
2023-05-18T02:27:45.829Z,3.60
2023-05-18T02:30:15.780Z,3.61
2023-05-18T02:32:42.944Z,3.63
2023-05-18T02:35:10.287Z,3.66
2023-05-18T02:37:40.329Z,3.69
2023-05-18T02:40:10.459Z,3.73
2023-05-18T02:42:37.164Z,3.73
2023-05-18T02:45:04.419Z,3.41
2023-05-18T02:47:31.096Z,3.70
2023-05-18T02:49:57.768Z,3.67
2023-05-18T02:52:24.528Z,3.67
2023-05-18T02:54:51.277Z,3.71
2023-05-18T02:57:17.958Z,3.79
2023-05-18T02:59:44.705Z,3.83
2023-05-18T03:02:14.497Z,3.81
2023-05-18T03:04:41.858Z,3.82
2023-05-18T03:07:08.765Z,3.84
2023-05-18T03:09:35.598Z,3.85
2023-05-18T03:12:02.360Z,3.82
2023-05-18T03:14:30.229Z,3.89
2023-05-18T03:16:58.051Z,3.92
2023-05-18T03:19:25.011Z,3.87
2023-05-18T03:21:51.897Z,3.94
2023-05-18T03:24:18.647Z,3.97
2023-05-18T03:26:45.310Z,3.98
2023-05-18T03:29:13.577Z,4.07
2023-05-18T03:31:41.086Z,4.10
2023-05-18T03:34:07.770Z,4.17
2023-05-18T03:36:35.717Z,4.22
2023-05-18T03:39:02.609Z,4.27
2023-05-18T03:41:30.121Z,4.31
2023-05-18T03:43:56.979Z,4.33
2023-05-18T03:46:23.828Z,4.38
2023-05-18T03:48:51.453Z,4.44
2023-05-18T03:51:18.189Z,4.50
2023-05-18T03:53:45.053Z,4.56
2023-05-18T03:56:13.445Z,4.52
2023-05-18T03:58:40.097Z,4.77
2023-05-18T04:01:06.805Z,4.83
2023-05-18T04:03:34.812Z,4.96
2023-05-18T04:06:01.894Z,5.05
2023-05-18T04:08:30.547Z,5.10
2023-05-18T04:10:57.289Z,5.19
2023-05-18T04:13:24.037Z,5.23
2023-05-18T04:15:50.886Z,5.21
2023-05-18T04:18:17.574Z,5.24
2023-05-18T04:20:46.189Z,5.37
2023-05-18T04:23:12.966Z,5.57
2023-05-18T04:25:43.855Z,5.74
2023-05-18T04:28:10.457Z,5.85
2023-05-18T04:30:39.890Z,6.03
2023-05-18T04:33:09.295Z,6.13
2023-05-18T04:35:36.121Z,6.27
2023-05-18T04:38:02.890Z,6.29
2023-05-18T04:40:33.986Z,6.50
2023-05-18T04:43:01.906Z,6.62
2023-05-18T04:45:28.867Z,6.83
2023-05-18T04:47:55.742Z,6.99
2023-05-18T04:50:26.138Z,7.14
2023-05-18T04:52:53.572Z,7.27
2023-05-18T04:55:27.880Z,7.39
2023-05-18T04:58:00.440Z,7.44
2023-05-18T05:00:31.371Z,7.60
2023-05-18T05:02:59.363Z,7.65
2023-05-18T05:05:27.095Z,7.76
2023-05-18T05:07:54.518Z,7.87
2023-05-18T05:10:21.840Z,7.93
2023-05-18T05:12:50.579Z,7.98
2023-05-18T05:15:18.184Z,7.92
2023-05-18T05:17:47.069Z,8.08
2023-05-18T05:20:14.119Z,8.13
2023-05-18T05:22:40.912Z,8.18
2023-05-18T05:25:08.045Z,8.24
2023-05-18T05:27:35.032Z,8.26
2023-05-18T05:30:03.018Z,8.35
2023-05-18T05:32:29.661Z,8.34
2023-05-18T05:34:56.367Z,8.39
2023-05-18T05:37:23.000Z,8.46
2023-05-18T05:39:49.649Z,8.51
2023-05-18T05:42:16.511Z,8.48
2023-05-18T05:44:43.146Z,8.48
2023-05-18T05:47:10.615Z,8.44
2023-05-18T05:49:37.329Z,8.50
2023-05-18T05:52:04.413Z,8.57
2023-05-18T05:54:31.354Z,8.65
2023-05-18T05:56:58.049Z,8.70
2023-05-18T05:59:24.858Z,8.75
2023-05-18T06:01:51.664Z,8.81
2023-05-18T06:04:18.556Z,8.85
2023-05-18T06:06:47.885Z,8.86
2023-05-18T06:09:14.634Z,8.81
2023-05-18T06:11:41.301Z,8.84
2023-05-18T06:14:07.896Z,8.97
2023-05-18T06:16:34.643Z,9.01
2023-05-18T06:19:01.271Z,9.03
2023-05-18T06:21:28.119Z,9.18
2023-05-18T06:23:54.815Z,9.29
2023-05-18T06:26:23.015Z,9.28
2023-05-18T06:28:49.753Z,9.26
2023-05-18T06:31:17.122Z,9.15
2023-05-18T06:33:43.813Z,9.26
2023-05-18T06:36:10.486Z,9.35
2023-05-18T06:38:37.097Z,9.38
2023-05-18T06:41:03.976Z,9.45
2023-05-18T06:43:30.966Z,9.44
2023-05-18T06:45:57.638Z,9.33
2023-05-18T06:48:28.608Z,9.56
2023-05-18T06:50:55.667Z,9.57
2023-05-18T06:53:23.408Z,9.68
2023-05-18T06:55:50.201Z,9.77
2023-05-18T06:58:16.942Z,9.87
2023-05-18T07:00:43.718Z,9.88
2023-05-18T07:03:11.089Z,9.63
2023-05-18T07:05:39.470Z,9.42
2023-05-18T07:08:07.451Z,9.27
2023-05-18T07:10:35.549Z,9.17
2023-05-18T07:13:02.392Z,9.22
2023-05-18T07:15:30.370Z,9.41
2023-05-18T07:17:57.740Z,9.44
2023-05-18T07:20:26.418Z,9.85
2023-05-18T07:22:56.535Z,9.95
2023-05-18T07:25:23.874Z,9.86
2023-05-18T07:27:54.655Z,10.11
2023-05-18T07:30:22.378Z,10.08
2023-05-18T07:32:49.292Z,10.02
2023-05-18T07:35:17.033Z,10.25
2023-05-18T07:37:43.792Z,10.41
2023-05-18T07:40:11.461Z,10.72
2023-05-18T07:42:40.017Z,11.09
2023-05-18T07:45:07.230Z,11.41
2023-05-18T07:47:34.099Z,11.43
2023-05-18T07:50:00.796Z,11.60
2023-05-18T07:52:27.462Z,11.70
2023-05-18T07:54:57.061Z,11.73
2023-05-18T07:57:25.404Z,11.73
2023-05-18T07:59:52.293Z,11.80
2023-05-18T08:02:20.125Z,11.71
2023-05-18T08:04:48.234Z,11.62
2023-05-18T08:07:15.087Z,11.55
2023-05-18T08:09:41.900Z,11.63
2023-05-18T08:12:08.946Z,11.73
2023-05-18T08:14:35.920Z,11.66
2023-05-18T08:17:04.917Z,11.55
2023-05-18T08:19:37.246Z,11.70
2023-05-18T08:22:05.939Z,11.77
2023-05-18T08:24:33.840Z,11.84
2023-05-18T08:27:00.621Z,11.71
2023-05-18T08:29:30.158Z,11.76
2023-05-18T08:31:56.908Z,11.87
2023-05-18T08:34:23.689Z,12.14
2023-05-18T08:36:50.422Z,12.17
2023-05-18T08:39:17.076Z,11.91
2023-05-18T08:42:02.182Z,11.78
2023-05-18T08:44:44.666Z,11.52
2023-05-18T08:47:12.880Z,11.41
2023-05-18T08:49:42.914Z,11.36
2023-05-18T08:52:17.828Z,11.09
2023-05-18T08:54:44.883Z,11.21
2023-05-18T08:57:12.413Z,11.58
2023-05-18T08:59:42.167Z,11.58
2023-05-18T09:02:10.057Z,11.36
2023-05-18T09:04:38.702Z,11.32
2023-05-18T09:07:07.359Z,11.33
2023-05-18T09:09:35.582Z,11.56
2023-05-18T09:12:03.292Z,11.64
2023-05-18T09:14:32.545Z,11.71
2023-05-18T09:16:59.224Z,11.98
2023-05-18T09:19:26.027Z,12.36
2023-05-18T09:21:52.753Z,12.85
2023-05-18T09:24:23.766Z,13.46
2023-05-18T09:26:51.703Z,12.93
2023-05-18T09:29:20.148Z,12.98
2023-05-18T09:31:48.467Z,12.72
2023-05-18T09:34:16.411Z,13.45
2023-05-18T09:36:49.461Z,13.65
2023-05-18T09:39:16.167Z,13.96
2023-05-18T09:41:42.945Z,14.59
2023-05-18T09:44:12.795Z,14.36
2023-05-18T09:46:40.326Z,14.07
2023-05-18T09:49:08.505Z,13.85
2023-05-18T09:51:36.564Z,13.45
2023-05-18T09:54:06.632Z,13.01
2023-05-18T09:56:37.202Z,12.79
2023-05-18T09:59:15.754Z,12.63
2023-05-18T10:02:05.919Z,12.69
2023-05-18T10:04:42.942Z,12.74
2023-05-18T10:07:14.088Z,12.98
2023-05-18T10:09:42.087Z,12.99
2023-05-18T10:12:16.305Z,13.17
2023-05-18T10:14:46.495Z,13.54
2023-05-18T10:17:16.291Z,13.49
2023-05-18T10:19:44.777Z,13.43
2023-05-18T10:22:16.086Z,13.34
2023-05-18T10:24:46.397Z,13.30
2023-05-18T10:27:16.050Z,13.89
2023-05-18T10:29:43.475Z,13.69
2023-05-18T10:32:14.197Z,13.46
2023-05-18T10:34:43.595Z,13.25
2023-05-18T10:37:12.270Z,13.52
2023-05-18T10:39:45.273Z,14.13
2023-05-18T10:42:13.393Z,14.09
2023-05-18T10:44:40.177Z,14.20
2023-05-18T10:47:09.126Z,14.72
2023-05-18T10:49:36.341Z,15.23
2023-05-18T10:52:03.977Z,15.31
2023-05-18T10:54:30.790Z,15.44
2023-05-18T10:56:57.737Z,15.38
2023-05-18T10:59:25.590Z,15.60
2023-05-18T11:01:54.224Z,15.59
2023-05-18T11:04:27.328Z,15.45
2023-05-18T11:06:55.466Z,15.53
2023-05-18T11:09:24.095Z,15.96
2023-05-18T11:11:56.481Z,16.00
2023-05-18T11:14:27.748Z,15.85
2023-05-18T11:16:54.843Z,15.71
2023-05-18T11:19:26.431Z,15.75
2023-05-18T11:21:53.885Z,15.46
2023-05-18T11:24:31.189Z,15.31
2023-05-18T11:27:01.260Z,14.82
2023-05-18T11:29:51.847Z,14.44
2023-05-18T11:32:31.471Z,14.21
2023-05-18T11:34:59.588Z,14.51
2023-05-18T11:37:45.325Z,14.75
2023-05-18T11:40:13.908Z,14.82
2023-05-18T11:42:40.769Z,15.33
2023-05-18T11:45:08.626Z,15.34
2023-05-18T11:47:36.812Z,15.04
2023-05-18T11:50:08.646Z,15.04
2023-05-18T11:52:47.168Z,15.16
2023-05-18T11:55:15.502Z,15.52
2023-05-18T11:57:48.962Z,15.53
2023-05-18T12:00:17.107Z,15.27
2023-05-18T12:02:45.365Z,15.23
2023-05-18T12:05:13.232Z,15.11
2023-05-18T12:07:41.734Z,14.77
2023-05-18T12:10:10.307Z,15.05
2023-05-18T12:12:36.988Z,15.66
2023-05-18T12:15:06.514Z,15.65
2023-05-18T12:17:44.101Z,15.66
2023-05-18T12:20:15.291Z,15.62
2023-05-18T12:22:44.248Z,15.73
2023-05-18T12:25:11.748Z,15.87
2023-05-18T12:27:44.622Z,15.71
2023-05-18T12:30:13.930Z,16.04
2023-05-18T12:32:55.039Z,15.94
2023-05-18T12:35:26.242Z,15.84
2023-05-18T12:37:55.638Z,15.89
2023-05-18T12:40:22.673Z,15.59
2023-05-18T12:42:59.528Z,15.74
2023-05-18T12:45:34.482Z,15.99
2023-05-18T12:48:05.644Z,16.16
2023-05-18T12:50:32.425Z,16.31
2023-05-18T12:52:59.238Z,16.62
2023-05-18T12:55:26.611Z,16.25
2023-05-18T12:58:08.778Z,15.92
2023-05-18T13:00:37.239Z,15.86
2023-05-18T13:03:15.324Z,15.65
2023-05-18T13:05:45.869Z,15.57
2023-05-18T13:08:22.192Z,15.61
2023-05-18T13:10:57.985Z,15.43
2023-05-18T13:13:32.671Z,15.24
2023-05-18T13:16:02.432Z,15.17
2023-05-18T13:18:29.283Z,15.56
2023-05-18T13:20:57.085Z,15.58
2023-05-18T13:23:27.481Z,15.91
2023-05-18T13:25:56.689Z,16.11
2023-05-18T13:28:24.805Z,16.11
2023-05-18T13:30:51.516Z,15.89
2023-05-18T13:33:19.425Z,15.68
2023-05-18T13:35:46.832Z,15.47
2023-05-18T13:38:14.444Z,15.65
2023-05-18T13:40:41.833Z,15.68
2023-05-18T13:43:11.162Z,15.73
2023-05-18T13:45:40.038Z,16.00
2023-05-18T13:48:11.286Z,16.04
2023-05-18T13:50:39.115Z,16.17
2023-05-18T13:53:06.687Z,15.88
2023-05-18T13:55:34.463Z,15.61
2023-05-18T13:58:01.497Z,15.49
2023-05-18T14:00:28.653Z,15.47
2023-05-18T14:02:56.608Z,15.27
2023-05-18T14:05:23.572Z,15.18
2023-05-18T14:07:52.476Z,14.94
2023-05-18T14:10:19.282Z,14.80
2023-05-18T14:12:46.239Z,14.82
2023-05-18T14:15:14.274Z,14.96
2023-05-18T14:17:41.533Z,15.48
2023-05-18T14:20:08.943Z,15.79
2023-05-18T14:22:35.827Z,15.62
2023-05-18T14:25:02.628Z,15.22
2023-05-18T14:27:30.021Z,15.44
2023-05-18T14:29:58.466Z,15.47
2023-05-18T14:32:25.608Z,15.75
2023-05-18T14:34:55.332Z,16.07
2023-05-18T14:37:22.221Z,15.82
2023-05-18T14:39:49.048Z,15.58
2023-05-18T14:42:15.797Z,15.57
2023-05-18T14:44:42.473Z,15.63
2023-05-18T14:47:10.617Z,15.75
2023-05-18T14:49:38.926Z,15.69
2023-05-18T14:52:05.956Z,15.54
2023-05-18T14:54:32.820Z,15.59
2023-05-18T14:56:59.966Z,15.64
2023-05-18T14:59:28.728Z,15.54
2023-05-18T15:01:55.760Z,15.44
2023-05-18T15:04:23.633Z,15.40
2023-05-18T15:06:50.435Z,15.57
2023-05-18T15:09:17.485Z,15.18
2023-05-18T15:11:44.725Z,14.90
2023-05-18T15:14:11.694Z,14.43
2023-05-18T15:16:39.121Z,14.12
2023-05-18T15:19:06.218Z,14.45
2023-05-18T15:21:33.154Z,14.69
2023-05-18T15:24:00.102Z,14.77
2023-05-18T15:26:27.577Z,14.69
2023-05-18T15:28:54.611Z,14.47
2023-05-18T15:31:21.634Z,14.42
2023-05-18T15:33:48.410Z,14.50
2023-05-18T15:36:15.263Z,14.42
2023-05-18T15:38:41.964Z,14.47
2023-05-18T15:41:09.110Z,14.85
2023-05-18T15:43:36.888Z,14.80
2023-05-18T15:46:03.739Z,14.60
2023-05-18T15:48:30.819Z,14.69
2023-05-18T15:50:58.575Z,14.71
2023-05-18T15:53:25.372Z,14.86
2023-05-18T15:55:56.628Z,14.43
2023-05-18T15:58:25.666Z,14.39
2023-05-18T16:00:52.508Z,14.28
2023-05-18T16:03:19.650Z,13.98
2023-05-18T16:05:46.693Z,14.13
2023-05-18T16:08:13.710Z,14.03
2023-05-18T16:10:40.457Z,14.28
2023-05-18T16:13:07.382Z,14.49
2023-05-18T16:15:35.110Z,14.56
2023-05-18T16:18:02.430Z,14.73
2023-05-18T16:20:30.002Z,14.58
2023-05-18T16:22:57.258Z,14.38
2023-05-18T16:25:25.449Z,14.23
2023-05-18T16:27:52.241Z,13.65
2023-05-18T16:30:18.946Z,13.71
2023-05-18T16:32:45.818Z,13.29
2023-05-18T16:35:12.717Z,13.44
2023-05-18T16:37:39.914Z,13.54
2023-05-18T16:40:07.488Z,13.48
2023-05-18T16:42:34.450Z,13.51
2023-05-18T16:45:01.814Z,13.75
2023-05-18T16:47:28.726Z,13.55
2023-05-18T16:49:55.657Z,13.36
2023-05-18T16:52:22.451Z,13.35
2023-05-18T16:54:49.295Z,13.16
2023-05-18T16:57:17.374Z,12.70
2023-05-18T16:59:44.175Z,12.74
2023-05-18T17:02:13.508Z,12.70
2023-05-18T17:04:50.498Z,12.60
2023-05-18T17:07:17.555Z,12.31
2023-05-18T17:09:44.486Z,11.89
2023-05-18T17:12:11.796Z,11.96
2023-05-18T17:14:42.295Z,11.81
2023-05-18T17:17:12.140Z,11.81
2023-05-18T17:19:40.583Z,11.74
2023-05-18T17:22:10.546Z,11.64
2023-05-18T17:24:37.486Z,11.63
2023-05-18T17:27:05.174Z,11.64
2023-05-18T17:29:31.815Z,11.54
2023-05-18T17:31:58.497Z,11.39
2023-05-18T17:34:27.075Z,11.41
2023-05-18T17:36:56.674Z,11.44
2023-05-18T17:39:23.350Z,11.30
2023-05-18T17:41:52.507Z,11.21
2023-05-18T17:44:19.353Z,11.20
2023-05-18T17:46:46.460Z,11.22
2023-05-18T17:49:13.655Z,11.17
2023-05-18T17:51:40.725Z,11.17
2023-05-18T17:54:08.275Z,10.98
2023-05-18T17:56:35.436Z,11.01
2023-05-18T17:59:05.655Z,11.04
2023-05-18T18:01:33.510Z,10.99
2023-05-18T18:04:01.623Z,10.80
2023-05-18T18:06:28.519Z,10.66
2023-05-18T18:08:57.986Z,10.46
2023-05-18T18:11:26.623Z,10.23
2023-05-18T18:13:54.044Z,9.96
2023-05-18T18:16:21.443Z,9.72
2023-05-18T18:18:50.721Z,9.53
2023-05-18T18:21:17.403Z,9.22
2023-05-18T18:23:44.260Z,9.20
2023-05-18T18:26:11.260Z,9.01
2023-05-18T18:28:40.111Z,8.88
2023-05-18T18:31:07.936Z,8.86
2023-05-18T18:33:34.773Z,8.89
2023-05-18T18:36:02.555Z,8.90
2023-05-18T18:38:29.568Z,8.92
2023-05-18T18:41:01.425Z,8.85
2023-05-18T18:43:28.762Z,8.78
2023-05-18T18:45:57.270Z,8.72
2023-05-18T18:48:24.903Z,8.62
2023-05-18T18:50:51.616Z,8.49
2023-05-18T18:53:18.321Z,8.34
2023-05-18T18:55:46.096Z,8.13
2023-05-18T18:58:12.772Z,8.02
2023-05-18T19:00:39.556Z,7.75
2023-05-18T19:03:06.305Z,7.60
2023-05-18T19:05:33.188Z,7.52
2023-05-18T19:08:01.783Z,7.34
2023-05-18T19:10:28.492Z,7.18
2023-05-18T19:12:55.200Z,7.07
2023-05-18T19:15:22.006Z,6.87
2023-05-18T19:17:53.717Z,6.74
2023-05-18T19:20:21.047Z,6.55
2023-05-18T19:22:47.975Z,6.45
2023-05-18T19:25:14.804Z,6.31
2023-05-18T19:27:41.803Z,6.16
2023-05-18T19:30:09.017Z,6.09
2023-05-18T19:32:35.767Z,6.00
2023-05-18T19:35:02.881Z,5.88
2023-05-18T19:37:29.574Z,5.59
2023-05-18T19:39:56.341Z,5.80
2023-05-18T19:42:23.083Z,5.77
2023-05-18T19:44:49.690Z,5.69
2023-05-18T19:47:16.594Z,5.79
2023-05-18T19:49:43.613Z,5.89
2023-05-18T19:52:11.139Z,5.97
2023-05-18T19:54:38.634Z,5.91
2023-05-18T19:57:05.672Z,5.80
2023-05-18T19:59:32.401Z,5.64
2023-05-18T20:01:59.646Z,5.60
2023-05-18T20:04:28.472Z,5.64
2023-05-18T20:07:01.878Z,5.63
2023-05-18T20:09:29.261Z,5.58
2023-05-18T20:11:56.287Z,5.56
2023-05-18T20:14:23.791Z,5.57
2023-05-18T20:16:52.522Z,5.60
2023-05-18T20:19:19.393Z,5.58
2023-05-18T20:21:48.562Z,5.52
2023-05-18T20:24:15.337Z,5.45
2023-05-18T20:26:42.006Z,5.11
2023-05-18T20:29:08.756Z,5.07
2023-05-18T20:31:35.949Z,4.90
2023-05-18T20:34:02.805Z,4.77
2023-05-18T20:36:29.938Z,4.69
2023-05-18T20:38:56.695Z,4.61
2023-05-18T20:41:24.432Z,4.59
2023-05-18T20:43:52.368Z,4.54
2023-05-18T20:46:24.925Z,4.43
2023-05-18T20:48:55.266Z,4.31
2023-05-18T20:51:23.372Z,4.33
2023-05-18T20:53:50.180Z,4.35
2023-05-18T20:56:18.094Z,4.45
2023-05-18T20:58:48.474Z,4.50
2023-05-18T21:01:16.178Z,4.42
2023-05-18T21:03:45.014Z,4.26
2023-05-18T21:06:13.215Z,4.15
2023-05-18T21:08:40.983Z,4.03
2023-05-18T21:11:07.635Z,3.91
2023-05-18T21:13:36.779Z,3.81
2023-05-18T21:16:06.500Z,3.68
2023-05-18T21:18:34.392Z,3.57
2023-05-18T21:21:02.437Z,3.51
2023-05-18T21:23:30.369Z,3.65
2023-05-18T21:25:57.819Z,3.76
2023-05-18T21:28:25.036Z,3.77
2023-05-18T21:30:52.370Z,3.65
2023-05-18T21:33:19.337Z,3.56
2023-05-18T21:35:46.160Z,3.57
2023-05-18T21:38:12.737Z,3.60
2023-05-18T21:40:42.104Z,3.48
2023-05-18T21:43:10.333Z,3.33
2023-05-18T21:45:37.112Z,3.31
2023-05-18T21:48:04.048Z,3.27
2023-05-18T21:50:34.665Z,3.15
2023-05-18T21:53:03.272Z,3.02
2023-05-18T21:55:33.692Z,2.90
2023-05-18T21:58:00.691Z,2.79
2023-05-18T22:00:28.047Z,2.71
2023-05-18T22:02:54.740Z,2.96
2023-05-18T22:05:21.756Z,2.88
2023-05-18T22:07:49.290Z,2.89
2023-05-18T22:10:17.899Z,2.86
2023-05-18T22:12:45.075Z,2.83
2023-05-18T22:15:12.874Z,2.78
2023-05-18T22:17:39.965Z,2.66
2023-05-18T22:20:11.623Z,2.61
2023-05-18T22:22:40.288Z,2.66
2023-05-18T22:25:07.456Z,2.77
2023-05-18T22:27:36.589Z,2.77
2023-05-18T22:30:05.022Z,2.71
2023-05-18T22:32:32.002Z,2.70
2023-05-18T22:35:00.026Z,2.62
2023-05-18T22:37:26.736Z,2.54
2023-05-18T22:39:53.846Z,2.49
2023-05-18T22:42:21.356Z,2.63
2023-05-18T22:44:49.037Z,2.78
2023-05-18T22:47:19.768Z,2.84
2023-05-18T22:49:46.490Z,2.77
2023-05-18T22:52:13.492Z,2.73
2023-05-18T22:54:40.189Z,2.88
2023-05-18T22:57:06.776Z,3.01
2023-05-18T22:59:33.562Z,3.05
2023-05-18T23:02:01.228Z,3.01
2023-05-18T23:04:27.945Z,2.90
2023-05-18T23:06:54.718Z,2.77
2023-05-18T23:09:21.309Z,2.82
2023-05-18T23:11:49.958Z,2.91
2023-05-18T23:14:16.558Z,2.95
2023-05-18T23:16:43.336Z,2.92
2023-05-18T23:19:12.592Z,2.91
2023-05-18T23:21:42.370Z,2.88
2023-05-18T23:24:12.264Z,2.80
2023-05-18T23:26:42.760Z,2.70
2023-05-18T23:29:10.402Z,2.79
2023-05-18T23:31:37.403Z,2.87
2023-05-18T23:34:04.914Z,2.92
2023-05-18T23:36:35.241Z,2.94
2023-05-18T23:39:02.526Z,2.95
2023-05-18T23:41:31.480Z,2.87
2023-05-18T23:43:58.639Z,2.76
2023-05-18T23:46:26.666Z,2.63
2023-05-18T23:48:54.166Z,2.55
2023-05-18T23:51:21.756Z,2.43
2023-05-18T23:53:50.919Z,2.34
2023-05-18T23:56:18.570Z,2.37
2023-05-18T23:58:46.940Z,2.36
